FW0192 Weather Reports


Display with metric or nautical units.
time (UTC)temp
F
wind
direction
speed
MPH
gust
MPH
rain 1hr
in
rain 24hr
in
rain mn
in
humidity
%
barometer
mb
20180815071704 65 223 7.0 15.0 0.00 0.83 0.00 78 1018.8
20180815070204 65 176 10.0 13.0 0.00 0.83 0.00 77 1018.9
20180815064704 65 163 8.0 12.0 0.00 0.83 0.00 81 1019.2
20180815063204 65 197 10.0 14.0 0.00 0.83 0.00 82 1019.6
20180815061704 64 190 8.0 12.0 0.00 0.83 0.00 85 1019.9
20180815060204 64 182 7.0 10.0 0.00 0.83 0.83 86 1020.2
20180815054704 64 184 7.0 10.0 0.00 0.83 0.83 86 1020.2
20180815053204 63 192 4.0 6.0 0.00 0.83 0.83 89 1020.4
20180815051704 63 211 4.0 8.0 0.00 0.83 0.83 89 1020.5
20180815050204 63 219 6.0 10.0 0.00 0.83 0.83 88 1020.8
20180815044705 63 210 8.0 12.0 0.00 0.83 0.83 87 1020.8
20180815043205 64 211 7.0 12.0 0.00 0.83 0.83 87 1020.9
20180815041705 64 211 9.0 14.0 0.00 0.83 0.83 88 1021.1
20180815040206 64 227 8.0 14.0 0.00 0.83 0.83 88 1021.0
20180815034707 64 205 6.0 11.0 0.00 0.83 0.83 89 1020.8
20180815033206 63 196 9.0 13.0 0.01 0.83 0.83 90 1020.9
20180815031706 62 225 8.0 14.0 0.01 0.83 0.83 91 1021.1
20180815030205 62 221 10.0 13.0 0.01 0.83 0.83 92 1021.3
20180815024705 62 245 8.0 11.0 0.02 0.83 0.83 93 1021.3
20180815023205 63 234 8.0 11.0 0.03 0.82 0.82 93 1021.1
20180815021705 63 246 7.0 12.0 0.05 0.82 0.82 93 1021.6
20180815020205 63 244 11.0 15.0 0.05 0.82 0.82 92 1021.7
20180815014705 64 238 7.0 10.0 0.05 0.81 0.81 91 1021.3
20180815013205 64 289 5.0 7.0 0.18 0.79 0.79 89 1021.5
20180815011705 64 24 3.0 7.0 0.73 0.77 0.77 86 1020.9
20180815010205 64 53 3.0 14.0 0.77 0.77 0.77 88 1021.0
20180815004704 63 293 11.0 19.0 0.76 0.76 0.76 89 1021.1
20180815003204 65 318 15.0 26.0 0.43 0.43 0.43 83 1020.8
20180815001704 71 270 10.0 24.0 0.03 0.03 0.03 66 1020.5
20180815000204 78 69 12.0 21.0 0.00 0.00 0.00 47 1019.4
20180814234705 79 67 17.0 22.0 0.00 0.00 0.00 42 1017.5
20180814231704 81 92 11.0 13.0 0.00 0.00 0.00 41 1018.7
20180814230204 80 52 12.0 16.0 0.00 0.00 0.00 42 1018.3
20180814224704 80 88 10.0 14.0 0.00 0.00 0.00 40 1019.0
20180814223204 81 77 8.0 15.0 0.00 0.00 0.00 40 1019.2
20180814221704 83 60 7.0 15.0 0.00 0.00 0.00 40 1019.1
20180814220204 83 71 10.0 14.0 0.00 0.00 0.00 40 1018.4
20180814214704 81 92 7.0 11.0 0.00 0.00 0.00 44 1018.9
20180814213204 80 89 7.0 13.0 0.00 0.00 0.00 41 1019.0
20180814211704 80 60 7.0 11.0 0.00 0.00 0.00 43 1018.8
20180814210204 80 40 6.0 16.0 0.00 0.00 0.00 41 1018.9
20180814204704 81 74 5.0 13.0 0.00 0.00 0.00 43 1018.9
20180814203204 81 76 7.0 13.0 0.00 0.00 0.00 42 1019.1
20180814201704 81 118 8.0 13.0 0.00 0.00 0.00 42 1019.1
20180814200204 80 124 9.0 15.0 0.00 0.00 0.00 45 1019.2
20180814194704 79 95 8.0 11.0 0.00 0.00 0.00 46 1019.7
20180814193204 79 90 8.0 14.0 0.00 0.00 0.00 45 1019.8
20180814191703 79 59 6.0 15.0 0.00 0.00 0.00 48 1020.2
20180814190204 79 140 6.0 13.0 0.00 0.00 0.00 49 1020.3
20180814184704 78 86 8.0 14.0 0.00 0.00 0.00 54 1020.4
20180814183204 78 76 7.0 11.0 0.00 0.00 0.00 54 1020.6
20180814181705 76 128 7.0 12.0 0.00 0.00 0.00 57 1021.0
20180814180204 76 120 8.0 12.0 0.00 0.00 0.00 59 1021.1
20180814174704 75 101 6.0 12.0 0.00 0.00 0.00 65 1021.5
20180814173204 75 61 4.0 11.0 0.00 0.00 0.00 64 1021.7
20180814171704 74 119 4.0 12.0 0.00 0.00 0.00 67 1021.7
20180814170205 73 72 5.0 12.0 0.00 0.00 0.00 68 1021.7
20180814164704 72 19 2.0 6.0 0.00 0.00 0.00 71 1021.7
20180814163204 71 111 1.0 5.0 0.00 0.00 0.00 74 1021.7
20180814161704 69 311 1.0 7.0 0.00 0.00 0.00 79 1021.8
20180814160204 68 288 2.0 7.0 0.00 0.00 0.00 81 1021.6
20180814154703 66 332 2.0 7.0 0.00 0.00 0.00 85 1021.6
20180814153204 65 298 3.0 8.0 0.00 0.00 0.00 88 1021.5
20180814151704 65 261 4.0 9.0 0.00 0.00 0.00 91 1021.5
20180814150203 64 260 6.0 11.0 0.00 0.00 0.00 93 1021.5
20180814144704 62 290 7.0 11.0 0.00 0.00 0.00 96 1021.2
20180814143204 61 238 7.0 11.0 0.00 0.00 0.00 97 1021.1
20180814141704 61 281 6.0 9.0 0.00 0.00 0.00 97 1020.9
20180814140203 61 284 5.0 7.0 0.00 0.00 0.00 97 1020.8
20180814134704 60 290 3.0 6.0 0.00 0.00 0.00 97 1020.9
20180814133204 60 306 0.0 3.0 0.00 0.00 0.00 97 1020.8
20180814131704 60 32 2.0 4.0 0.00 0.00 0.00 97 1020.6
20180814130204 60 10 2.0 6.0 0.00 0.00 0.00 97 1020.4
20180814124705 59 45 5.0 8.0 0.00 0.00 0.00 97 1020.2
20180814123204 59 36 5.0 10.0 0.00 0.00 0.00 97 1019.8
20180814121704 60 26 6.0 10.0 0.00 0.00 0.00 96 1019.6
20180814120204 59 345 3.0 6.0 0.00 0.00 0.00 97 1019.5
20180814114704 58 323 4.0 6.0 0.00 0.00 0.00 96 1019.5
20180814113204 57 311 3.0 5.0 0.00 0.00 0.00 96 1019.1
20180814111705 57 296 3.0 6.0 0.00 0.00 0.00 96 1019.1
20180814110204 56 279 4.0 6.0 0.00 0.00 0.00 95 1019.1
20180814104704 56 279 3.0 6.0 0.00 0.00 0.00 94 1019.0
20180814103204 58 269 2.0 3.0 0.00 0.00 0.00 94 1019.0
20180814101704 58 17 2.0 5.0 0.00 0.00 0.00 94 1018.9
20180814100204 58 11 4.0 7.0 0.00 0.00 0.00 93 1019.1
20180814094704 58 31 5.0 9.0 0.00 0.00 0.00 91 1019.1
20180814093205 59 12 5.0 7.0 0.00 0.00 0.00 91 1018.9
20180814091704 59 5 5.0 7.0 0.00 0.00 0.00 90 1018.9
20180814090204 59 348 3.0 5.0 0.00 0.00 0.00 90 1018.9
20180814084704 59 10 3.0 5.0 0.00 0.00 0.00 90 1019.0
20180814083204 58 283 2.0 3.0 0.00 0.00 0.00 88 1018.9
20180814081705 59 282 0.0 3.0 0.00 0.00 0.00 88 1018.9
20180814080204 59 282 1.0 6.0 0.00 0.00 0.00 89 1019.0
20180814074704 60 61 3.0 4.0 0.00 0.00 0.00 87 1019.1
20180814073204 62 119 1.0 4.0 0.00 0.00 0.00 84 1018.9